createdAt,value
2024-03-24T00:00:18.322Z,6.4
2024-03-24T00:01:18.322Z,6.4
2024-03-24T00:02:18.340Z,6.4
2024-03-24T00:03:18.372Z,6.4
2024-03-24T00:04:18.399Z,6.4
2024-03-24T00:05:18.914Z,6.4
2024-03-24T00:06:19.406Z,6.4
2024-03-24T00:07:19.911Z,6.4
2024-03-24T00:08:19.876Z,6.4
2024-03-24T00:09:20.373Z,6.4
2024-03-24T00:10:20.396Z,6.4
2024-03-24T00:11:20.379Z,6.4
2024-03-24T00:12:20.906Z,6.4
2024-03-24T00:13:20.964Z,6.4
2024-03-24T00:14:20.998Z,6.4
2024-03-24T00:15:21.102Z,6.4
2024-03-24T00:16:21.168Z,6.4
2024-03-24T00:17:21.174Z,6.4
2024-03-24T00:18:21.159Z,6.4
2024-03-24T00:19:21.713Z,6.4
2024-03-24T00:20:21.707Z,6.4
2024-03-24T00:21:22.197Z,6.4
2024-03-24T00:22:22.707Z,6.4
2024-03-24T00:23:23.210Z,6.4
2024-03-24T00:24:23.715Z,6.4
2024-03-24T00:25:24.214Z,6.4
2024-03-24T00:26:24.705Z,6.4
2024-03-24T00:27:25.217Z,6.4
2024-03-24T00:28:25.252Z,6.4
2024-03-24T00:29:25.243Z,6.4
2024-03-24T00:30:25.810Z,6.4
2024-03-24T00:31:25.799Z,6.4
2024-03-24T00:32:26.421Z,6.4
2024-03-24T00:33:26.434Z,6.4
2024-03-24T00:34:26.435Z,6.4
2024-03-24T00:35:26.946Z,6.4
2024-03-24T00:36:26.941Z,6.4
2024-03-24T00:37:26.983Z,6.4
2024-03-24T00:38:27.662Z,6.4
2024-03-24T00:39:27.662Z,6.4
2024-03-24T00:40:28.150Z,6.4
2024-03-24T00:41:28.627Z,6.4
2024-03-24T00:42:29.139Z,6.4
2024-03-24T00:43:29.180Z,6.4
2024-03-24T00:44:29.163Z,6.4
2024-03-24T00:45:29.649Z,6.4
2024-03-24T00:46:30.155Z,6.4
2024-03-24T00:47:30.676Z,6.4
2024-03-24T00:48:31.186Z,6.4
2024-03-24T00:49:31.710Z,6.4
2024-03-24T00:50:31.818Z,6.4
2024-03-24T00:51:31.856Z,6.4
2024-03-24T00:52:32.344Z,6.4
2024-03-24T00:53:32.405Z,6.4
2024-03-24T00:54:32.402Z,6.4
2024-03-24T00:55:32.460Z,6.4
2024-03-24T00:56:32.457Z,6.4
2024-03-24T00:57:32.966Z,6.4
2024-03-24T00:58:33.052Z,6.2
2024-03-24T00:59:33.410Z,6.1
2024-03-24T01:00:33.593Z,6.2
2024-03-24T01:01:33.804Z,6.4
2024-03-24T01:02:34.058Z,6.4
2024-03-24T01:03:34.098Z,6.4
2024-03-24T01:04:34.391Z,6.4
2024-03-24T01:05:34.452Z,6.4
2024-03-24T01:06:34.700Z,6.4
2024-03-24T01:07:35.066Z,6.4
2024-03-24T01:08:35.178Z,6.4
2024-03-24T01:09:35.387Z,6.4
2024-03-24T01:10:35.582Z,6.4
2024-03-24T01:11:35.648Z,6.4
2024-03-24T01:12:35.758Z,6.4
2024-03-24T01:13:35.917Z,6.4
2024-03-24T01:14:35.999Z,6.4
2024-03-24T01:15:36.436Z,6.4
2024-03-24T01:16:36.506Z,6.4
2024-03-24T01:17:36.831Z,6.4
2024-03-24T01:18:36.951Z,6.4
2024-03-24T01:19:37.124Z,6.4
2024-03-24T01:20:37.395Z,6.4
2024-03-24T01:21:37.556Z,6.4
2024-03-24T01:22:37.623Z,6.4
2024-03-24T01:23:37.757Z,6.4
2024-03-24T01:24:37.826Z,6.4
2024-03-24T01:25:37.959Z,6.4
2024-03-24T01:26:38.492Z,6.4
2024-03-24T01:27:38.594Z,6.4
2024-03-24T01:28:38.983Z,6.4
2024-03-24T01:29:38.686Z,6.4
2024-03-24T01:30:38.912Z,6.4
2024-03-24T01:31:39.037Z,6.4
2024-03-24T01:32:39.216Z,6.4
2024-03-24T01:33:39.279Z,6.4
2024-03-24T01:34:39.450Z,6.4
2024-03-24T01:35:39.526Z,6.4
2024-03-24T01:36:39.730Z,6.4
2024-03-24T01:37:39.898Z,6.4
2024-03-24T01:38:40.353Z,6.4
2024-03-24T01:39:40.609Z,6.4
2024-03-24T01:40:40.786Z,6.4
2024-03-24T01:41:41.184Z,6.4
2024-03-24T01:42:41.302Z,6.4
2024-03-24T01:43:41.376Z,6.4
2024-03-24T01:44:41.426Z,6.4
2024-03-24T01:45:41.594Z,6.4
2024-03-24T01:46:41.983Z,6.4
2024-03-24T01:47:42.084Z,6.4
2024-03-24T01:48:42.273Z,6.4
2024-03-24T01:49:42.384Z,6.4
2024-03-24T01:50:42.418Z,6.4
2024-03-24T01:51:42.528Z,6.4
2024-03-24T01:52:42.707Z,6.4
2024-03-24T01:53:42.933Z,6.4
2024-03-24T01:54:43.025Z,6.4
2024-03-24T01:55:43.119Z,6.4
2024-03-24T01:56:43.178Z,6.4
2024-03-24T01:57:46.485Z,6.4
2024-03-24T01:58:43.570Z,6.4
2024-03-24T01:59:43.653Z,6.4
2024-03-24T02:00:43.736Z,6.4
2024-03-24T02:01:43.942Z,6.4
2024-03-24T02:02:44.065Z,6.4
2024-03-24T02:03:44.298Z,6.4
2024-03-24T02:04:44.816Z,6.4
2024-03-24T02:05:44.573Z,6.4
2024-03-24T02:06:45.113Z,6.4
2024-03-24T02:07:45.281Z,6.4
2024-03-24T02:08:45.706Z,6.4
2024-03-24T02:09:46.186Z,6.4
2024-03-24T02:10:46.323Z,6.4
2024-03-24T02:11:46.538Z,6.4
2024-03-24T02:12:46.982Z,6.4
2024-03-24T02:13:46.689Z,6.4
2024-03-24T02:14:46.897Z,6.4
2024-03-24T02:15:49.897Z,6.4
2024-03-24T02:16:47.761Z,6.4
2024-03-24T02:17:50.155Z,6.4
2024-03-24T02:18:48.881Z,6.4
2024-03-24T02:19:48.174Z,6.4
2024-03-24T02:20:48.206Z,6.5
2024-03-24T02:21:48.330Z,6.8
2024-03-24T02:22:48.470Z,6.8
2024-03-24T02:23:48.798Z,6.8
2024-03-24T02:24:48.927Z,6.8
2024-03-24T02:25:49.402Z,6.8
2024-03-24T02:26:49.525Z,6.8
2024-03-24T02:27:49.585Z,6.8
2024-03-24T02:28:49.744Z,6.8
2024-03-24T02:29:49.884Z,6.4
2024-03-24T02:30:50.018Z,6.4
2024-03-24T02:31:50.287Z,6.4
2024-03-24T02:32:50.361Z,6.4
2024-03-24T02:33:50.481Z,6.4
2024-03-24T02:34:50.588Z,6.4
2024-03-24T02:35:50.875Z,6.4
2024-03-24T02:36:51.086Z,6.4
2024-03-24T02:37:51.209Z,6.8
2024-03-24T02:38:51.389Z,6.8
2024-03-24T02:39:51.498Z,6.4
2024-03-24T02:40:51.529Z,6.4
2024-03-24T02:41:51.600Z,6.4
2024-03-24T02:42:51.754Z,6.4
2024-03-24T02:43:52.015Z,6.4
2024-03-24T02:44:52.111Z,6.4
2024-03-24T02:45:52.228Z,6.4
2024-03-24T02:46:52.310Z,6.4
2024-03-24T02:47:52.428Z,6.4
2024-03-24T02:48:52.472Z,6.4
2024-03-24T02:49:52.572Z,6.4
2024-03-24T02:50:52.687Z,6.4
2024-03-24T02:51:52.813Z,6.4
2024-03-24T02:52:52.972Z,6.2
2024-03-24T02:53:53.152Z,6
2024-03-24T02:54:53.377Z,6
2024-03-24T02:55:53.543Z,6
2024-03-24T02:56:53.610Z,6
2024-03-24T02:57:53.689Z,6
2024-03-24T02:58:53.769Z,6
2024-03-24T02:59:53.984Z,6
2024-03-24T03:00:54.107Z,6
2024-03-24T03:01:54.211Z,6
2024-03-24T03:02:54.327Z,5.9
2024-03-24T03:03:54.359Z,5.9
2024-03-24T03:04:54.642Z,5.9
2024-03-24T03:05:54.798Z,5.9
2024-03-24T03:06:54.896Z,5.9
2024-03-24T03:07:55.045Z,5.9
2024-03-24T03:08:55.166Z,5.9
2024-03-24T03:09:55.500Z,5.9
2024-03-24T03:10:55.601Z,5.9
2024-03-24T03:11:55.730Z,6
2024-03-24T03:12:55.814Z,6
2024-03-24T03:13:55.891Z,6
2024-03-24T03:14:55.917Z,6
2024-03-24T03:15:55.995Z,6
2024-03-24T03:16:56.000Z,6
2024-03-24T03:17:56.056Z,6
2024-03-24T03:18:56.059Z,6
2024-03-24T03:19:56.134Z,6
2024-03-24T03:20:56.155Z,6
2024-03-24T03:21:56.227Z,6
2024-03-24T03:22:56.202Z,6
2024-03-24T03:23:56.239Z,6
2024-03-24T03:24:56.238Z,5.9
2024-03-24T03:25:56.245Z,5.9
2024-03-24T03:26:56.249Z,5.9
2024-03-24T03:27:56.297Z,5.9
2024-03-24T03:28:56.321Z,5.9
2024-03-24T03:29:56.339Z,5.9
2024-03-24T03:30:56.367Z,5.9
2024-03-24T03:31:56.437Z,5.9
2024-03-24T03:32:56.482Z,5.9
2024-03-24T03:33:56.509Z,5.9
2024-03-24T03:34:56.565Z,5.9
2024-03-24T03:35:56.625Z,5.9
2024-03-24T03:36:56.698Z,5.9
2024-03-24T03:37:56.732Z,5.9
2024-03-24T03:39:59.671Z,5.9
2024-03-24T03:40:59.680Z,5.9
2024-03-24T03:41:59.741Z,5.9
2024-03-24T03:42:59.740Z,5.9
2024-03-24T03:43:59.754Z,5.9
2024-03-24T03:44:59.781Z,5.9
2024-03-24T03:45:59.776Z,5.9
2024-03-24T03:46:59.794Z,5.9
2024-03-24T03:47:59.794Z,5.9
2024-03-24T03:48:59.826Z,5.9
2024-03-24T03:50:00.363Z,5.9
2024-03-24T03:51:00.825Z,5.9
2024-03-24T03:52:01.356Z,5.9
2024-03-24T03:53:01.345Z,5.9
2024-03-24T03:54:01.380Z,5.9
2024-03-24T03:55:01.431Z,5.9
2024-03-24T03:56:01.508Z,5.9
2024-03-24T03:57:01.613Z,5.9
2024-03-24T03:58:01.707Z,5.9
2024-03-24T03:59:01.727Z,5.9
2024-03-24T04:00:02.247Z,5.9
2024-03-24T04:01:02.715Z,5.9
2024-03-24T04:02:02.714Z,5.9
2024-03-24T04:03:02.752Z,5.9
2024-03-24T04:04:02.753Z,5.9
2024-03-24T04:05:03.278Z,5.9
2024-03-24T04:06:03.318Z,5.9
2024-03-24T04:07:03.340Z,5.9
2024-03-24T04:08:03.338Z,5.9
2024-03-24T04:09:03.820Z,5.9
2024-03-24T04:10:04.315Z,5.9
2024-03-24T04:11:04.343Z,5.9
2024-03-24T04:12:04.324Z,5.9
2024-03-24T04:13:04.867Z,5.9
2024-03-24T04:14:04.899Z,5.9
2024-03-24T04:15:04.946Z,5.9
2024-03-24T04:16:04.923Z,5.9
2024-03-24T04:17:05.401Z,5.9
2024-03-24T04:18:05.947Z,5.9
2024-03-24T04:19:05.947Z,5.9
2024-03-24T04:20:05.970Z,5.9
2024-03-24T04:21:06.455Z,5.9
2024-03-24T04:22:06.953Z,5.9
2024-03-24T04:23:07.517Z,5.9
2024-03-24T04:24:07.526Z,5.9
2024-03-24T04:25:07.563Z,5.9
2024-03-24T04:26:07.630Z,5.9
2024-03-24T04:27:07.650Z,5.9
2024-03-24T04:28:07.666Z,5.9
2024-03-24T04:29:07.714Z,5.9
2024-03-24T04:30:07.731Z,5.9
2024-03-24T04:31:07.713Z,5.9
2024-03-24T04:32:07.769Z,5.9
2024-03-24T04:33:07.763Z,5.8
2024-03-24T04:34:08.273Z,5.7
2024-03-24T04:35:08.766Z,5.7
2024-03-24T04:36:08.775Z,5.9
2024-03-24T04:37:08.934Z,5.9
2024-03-24T04:38:08.966Z,5.9
2024-03-24T04:39:08.974Z,5.9
2024-03-24T04:40:08.974Z,5.9
2024-03-24T04:41:09.044Z,5.9
2024-03-24T04:42:09.544Z,5.9
2024-03-24T04:43:09.612Z,5.9
2024-03-24T04:44:09.610Z,5.9
2024-03-24T04:45:09.634Z,5.9
2024-03-24T04:46:09.664Z,5.9
2024-03-24T04:47:09.642Z,5.9
2024-03-24T04:48:09.631Z,5.9
2024-03-24T04:49:09.653Z,5.9
2024-03-24T04:50:09.652Z,5.9
2024-03-24T04:51:10.169Z,5.9
2024-03-24T04:52:10.188Z,5.9
2024-03-24T04:53:10.165Z,5.9
2024-03-24T04:54:10.657Z,5.9
2024-03-24T04:55:11.196Z,5.9
2024-03-24T04:56:11.168Z,5.9
2024-03-24T04:57:11.196Z,5.9
2024-03-24T04:58:11.208Z,5.9
2024-03-24T04:59:11.727Z,5.9
2024-03-24T05:00:11.744Z,5.9
2024-03-24T05:01:11.749Z,5.9
2024-03-24T05:02:11.752Z,5.9
2024-03-24T05:03:12.262Z,5.9
2024-03-24T05:04:12.278Z,5.9
2024-03-24T05:05:12.359Z,5.9
2024-03-24T05:06:12.379Z,5.9
2024-03-24T05:07:12.393Z,5.9
2024-03-24T05:08:12.876Z,5.9
2024-03-24T05:09:13.445Z,5.9
2024-03-24T05:10:13.495Z,5.9
2024-03-24T05:11:13.674Z,5.9
2024-03-24T05:12:13.709Z,5.9
2024-03-24T05:13:13.746Z,5.9
2024-03-24T05:14:13.734Z,5.9
2024-03-24T05:15:13.785Z,5.9
2024-03-24T05:16:13.790Z,5.9
2024-03-24T05:17:14.295Z,5.9
2024-03-24T05:18:14.305Z,5.9
2024-03-24T05:19:14.375Z,5.9
2024-03-24T05:20:14.411Z,5.9
2024-03-24T05:21:14.421Z,5.9
2024-03-24T05:22:14.422Z,5.9
2024-03-24T05:23:14.921Z,5.9
2024-03-24T05:24:14.942Z,5.9
2024-03-24T05:25:14.954Z,5.9
2024-03-24T05:26:14.955Z,5.9
2024-03-24T05:27:15.020Z,5.9
2024-03-24T05:28:15.086Z,5.9
2024-03-24T05:29:15.097Z,5.9
2024-03-24T05:30:15.169Z,5.9
2024-03-24T05:31:15.235Z,5.9
2024-03-24T05:32:15.226Z,5.9
2024-03-24T05:33:15.239Z,5.8
2024-03-24T05:34:15.273Z,5.7
2024-03-24T05:35:15.263Z,5.6
2024-03-24T05:36:15.792Z,5.6
2024-03-24T05:37:15.790Z,5.7
2024-03-24T05:38:15.858Z,5.9
2024-03-24T05:39:15.857Z,5.9
2024-03-24T05:40:15.907Z,5.9
2024-03-24T05:41:15.929Z,5.9
2024-03-24T05:42:15.956Z,5.9
2024-03-24T05:43:15.991Z,5.9
2024-03-24T05:44:16.500Z,5.9
2024-03-24T05:45:16.554Z,5.9
2024-03-24T05:46:16.550Z,5.9
2024-03-24T05:47:16.567Z,5.9
2024-03-24T05:48:17.328Z,5.9
2024-03-24T05:52:26.400Z,5.9
2024-03-24T05:53:26.551Z,6.2
2024-03-24T05:54:26.653Z,6.4
2024-03-24T05:55:26.644Z,6.4
2024-03-24T05:56:27.180Z,6.4
2024-03-24T05:57:27.224Z,6.4
2024-03-24T05:58:27.233Z,6.4
2024-03-24T05:59:27.303Z,6.4
2024-03-24T06:00:27.340Z,6.4
2024-03-24T06:01:27.426Z,6.4
2024-03-24T06:02:27.525Z,6.4
2024-03-24T06:03:27.535Z,6.4
2024-03-24T06:04:27.568Z,6.1
2024-03-24T06:05:27.606Z,6
2024-03-24T06:06:27.635Z,6
2024-03-24T06:07:27.703Z,6
2024-03-24T06:08:27.712Z,5.9
2024-03-24T06:09:27.723Z,5.9
2024-03-24T06:10:27.792Z,5.9
2024-03-24T06:11:27.843Z,5.9
2024-03-24T06:12:27.912Z,5.9
2024-03-24T06:13:27.883Z,5.9
2024-03-24T06:14:27.897Z,5.9
2024-03-24T06:15:27.920Z,5.9
2024-03-24T06:16:27.981Z,5.9
2024-03-24T06:17:28.099Z,5.9
2024-03-24T06:18:28.101Z,5.9
2024-03-24T06:19:28.132Z,5.9
2024-03-24T06:20:28.210Z,5.9
2024-03-24T06:21:28.271Z,5.9
2024-03-24T06:22:28.302Z,5.9
2024-03-24T06:23:28.339Z,6
2024-03-24T06:24:28.404Z,6
2024-03-24T06:25:28.453Z,6.2
2024-03-24T06:26:28.504Z,6.4
2024-03-24T06:27:28.529Z,6.4
2024-03-24T06:28:28.580Z,6.4
2024-03-24T06:29:28.632Z,6.4
2024-03-24T06:30:28.737Z,6.4
2024-03-24T06:31:28.746Z,6.4
2024-03-24T06:32:28.912Z,6.4
2024-03-24T06:33:29.017Z,6.4
2024-03-24T06:34:29.570Z,6.4
2024-03-24T06:35:29.562Z,6.4
2024-03-24T06:36:30.277Z,6.4
2024-03-24T06:37:30.347Z,6.4
2024-03-24T06:38:30.359Z,6.4
2024-03-24T06:39:30.374Z,6.4
2024-03-24T06:40:30.396Z,6.4
2024-03-24T06:41:30.415Z,6.4
2024-03-24T06:42:30.560Z,6.4
2024-03-24T06:43:30.617Z,6.4
2024-03-24T06:44:30.696Z,6.4
2024-03-24T06:45:30.713Z,6.4
2024-03-24T06:46:30.743Z,6.4
2024-03-24T06:47:30.757Z,6.4
2024-03-24T06:48:30.855Z,6.4
2024-03-24T06:49:30.900Z,6.4
2024-03-24T06:50:30.935Z,6.4
2024-03-24T06:51:30.966Z,6.4
2024-03-24T06:52:31.959Z,6.4
2024-03-24T06:53:31.196Z,6.4
2024-03-24T06:54:31.269Z,6.4
2024-03-24T06:55:31.345Z,6.4
2024-03-24T06:56:31.424Z,6.4
2024-03-24T06:57:31.450Z,6.4
2024-03-24T06:58:31.552Z,6.4
2024-03-24T07:00:35.827Z,6.7
2024-03-24T07:01:34.219Z,6.8
2024-03-24T07:02:34.213Z,6.8
2024-03-24T07:03:34.729Z,6.8
2024-03-24T07:04:34.735Z,6.8
2024-03-24T07:05:35.218Z,6.8
2024-03-24T07:06:35.716Z,6.8
2024-03-24T07:07:35.708Z,6.8
2024-03-24T07:08:36.220Z,6.8
2024-03-24T07:09:36.701Z,6.8
2024-03-24T07:10:37.241Z,6.8
2024-03-24T07:11:37.670Z,6.8
2024-03-24T07:12:38.164Z,6.8
2024-03-24T07:13:38.678Z,6.8
2024-03-24T07:14:39.188Z,6.8
2024-03-24T07:15:39.682Z,6.8
2024-03-24T07:16:40.175Z,6.8
2024-03-24T07:17:40.668Z,6.8
2024-03-24T07:18:41.159Z,6.8
2024-03-24T07:19:41.671Z,6.8
2024-03-24T07:20:42.167Z,6.9
2024-03-24T07:21:42.674Z,7
2024-03-24T07:22:43.231Z,7.3
2024-03-24T07:23:43.207Z,7.3
2024-03-24T07:24:43.195Z,7.3
2024-03-24T07:25:43.708Z,7.3
2024-03-24T07:26:44.219Z,7.3
2024-03-24T07:27:44.227Z,7.3
2024-03-24T07:28:44.246Z,7.3
2024-03-24T07:29:44.266Z,7.3
2024-03-24T07:30:44.289Z,7.3
2024-03-24T07:31:44.272Z,7.3
2024-03-24T07:32:44.769Z,7.3
2024-03-24T07:33:44.784Z,7.3
2024-03-24T07:34:44.800Z,7.3
2024-03-24T07:35:45.306Z,7.3
2024-03-24T07:36:45.306Z,7.3
2024-03-24T07:37:45.862Z,7.3
2024-03-24T07:38:45.842Z,7.3
2024-03-24T07:39:45.843Z,7.3
2024-03-24T07:40:46.362Z,7.3
2024-03-24T07:41:48.167Z,7.3
2024-03-24T07:42:46.362Z,7.3
2024-03-24T07:43:46.369Z,7.3
2024-03-24T07:44:46.362Z,7.3
2024-03-24T07:45:46.414Z,7.3
2024-03-24T07:46:46.439Z,7.3
2024-03-24T07:47:46.465Z,7.3
2024-03-24T07:48:49.254Z,7.3
2024-03-24T07:49:46.947Z,7.3
2024-03-24T07:50:47.407Z,7.3
2024-03-24T07:51:47.884Z,7.3
2024-03-24T07:52:48.347Z,7.3
2024-03-24T07:53:48.819Z,7.4
2024-03-24T07:54:49.300Z,7.7
2024-03-24T07:55:49.797Z,7.7
2024-03-24T07:56:50.255Z,7.7
2024-03-24T07:57:50.717Z,7.7
2024-03-24T07:58:51.171Z,7.7
2024-03-24T07:59:51.668Z,7.7
2024-03-24T08:00:52.130Z,8.1
2024-03-24T08:01:52.606Z,8.1
2024-03-24T08:02:53.091Z,8.1
2024-03-24T08:03:53.568Z,8.1
2024-03-24T08:04:54.037Z,8.1
2024-03-24T08:05:54.534Z,8.1
2024-03-24T08:06:54.506Z,8.1
2024-03-24T08:07:56.461Z,8.1
2024-03-24T08:08:55.506Z,8.1
2024-03-24T08:09:55.508Z,7.9
2024-03-24T08:10:55.560Z,7.7
2024-03-24T08:11:56.034Z,7.7
2024-03-24T08:12:56.546Z,7.7
2024-03-24T08:13:56.534Z,7.7
2024-03-24T08:14:57.044Z,7.7
2024-03-24T08:15:57.063Z,7.3
2024-03-24T08:16:57.068Z,7.3
2024-03-24T08:17:57.074Z,7.3
2024-03-24T08:18:57.080Z,7.3
2024-03-24T08:19:57.587Z,7.3
2024-03-24T08:20:57.976Z,7.3
2024-03-24T08:21:57.598Z,7.3
2024-03-24T08:22:58.094Z,7.3
2024-03-24T08:23:58.634Z,7.3
2024-03-24T08:24:58.636Z,7.3
2024-03-24T08:25:58.668Z,7.3
2024-03-24T08:26:58.765Z,7.3
2024-03-24T08:27:58.805Z,7.3
2024-03-24T08:28:59.048Z,7.3
2024-03-24T08:29:59.079Z,7.3
2024-03-24T08:30:59.117Z,7.3
2024-03-24T08:31:59.179Z,7.3
2024-03-24T08:32:59.195Z,7.3
2024-03-24T08:33:59.184Z,7.3
2024-03-24T08:34:59.698Z,7.3
2024-03-24T08:36:00.268Z,7.3
2024-03-24T08:37:00.689Z,7.3
2024-03-24T08:38:01.205Z,7.3
2024-03-24T08:39:01.701Z,7.3
2024-03-24T08:40:02.190Z,7.3
2024-03-24T08:41:02.752Z,7.3
2024-03-24T08:42:03.320Z,7.3
2024-03-24T08:43:02.749Z,7.3
2024-03-24T08:44:03.262Z,7.3
2024-03-24T08:45:03.280Z,7.6
2024-03-24T08:46:03.267Z,7.7
2024-03-24T08:47:03.759Z,7.7
2024-03-24T08:48:03.755Z,7.7
2024-03-24T08:49:04.268Z,7.7
2024-03-24T08:50:04.274Z,7.7
2024-03-24T08:51:04.290Z,7.7
2024-03-24T08:52:04.301Z,7.7
2024-03-24T08:53:04.378Z,7.7
2024-03-24T08:54:04.448Z,7.7
2024-03-24T08:55:04.944Z,7.7
2024-03-24T08:56:05.431Z,8.1
2024-03-24T08:57:05.929Z,8.1
2024-03-24T08:58:06.410Z,8.1
2024-03-24T08:59:06.908Z,8.1
2024-03-24T09:00:07.420Z,8.1
2024-03-24T09:01:07.396Z,8.1
2024-03-24T09:02:07.890Z,8.1
2024-03-24T09:03:08.374Z,8.1
2024-03-24T09:04:08.869Z,8.1
2024-03-24T09:05:08.857Z,8.1
2024-03-24T09:06:09.460Z,8.3
2024-03-24T09:07:09.479Z,8.5
2024-03-24T09:08:09.441Z,8.5
2024-03-24T09:09:09.953Z,8.5
2024-03-24T09:10:10.482Z,8.5
2024-03-24T09:11:10.519Z,8.5
2024-03-24T09:12:10.533Z,8.5
2024-03-24T09:13:11.013Z,8.5
2024-03-24T09:14:11.015Z,8.5
2024-03-24T09:15:11.511Z,8.5
2024-03-24T09:16:11.517Z,8.5
2024-03-24T09:17:11.504Z,8.5
2024-03-24T09:18:12.020Z,8.5
2024-03-24T09:19:12.023Z,8.5
2024-03-24T09:20:12.586Z,8.9
2024-03-24T09:21:12.564Z,8.9
2024-03-24T09:22:13.041Z,8.9
2024-03-24T09:23:13.506Z,8.9
2024-03-24T09:24:14.008Z,8.9
2024-03-24T09:25:13.976Z,9.3
2024-03-24T09:26:14.510Z,9.3
2024-03-24T09:27:14.494Z,9.3
2024-03-24T09:28:14.952Z,9.3
2024-03-24T09:29:15.406Z,9.3
2024-03-24T09:30:15.879Z,9.3
2024-03-24T09:31:16.373Z,9.6
2024-03-24T09:32:16.913Z,9.6
2024-03-24T09:33:17.605Z,9.6
2024-03-24T09:34:16.916Z,9.6
2024-03-24T09:35:16.925Z,9.6
2024-03-24T09:36:16.923Z,9.6
2024-03-24T09:37:17.428Z,9.6
2024-03-24T09:38:17.455Z,9.3
2024-03-24T09:39:17.448Z,9.3
2024-03-24T09:40:17.449Z,9.3
2024-03-24T09:41:17.941Z,9.3
2024-03-24T09:42:18.449Z,9.3
2024-03-24T09:43:18.942Z,9.6
2024-03-24T09:44:19.458Z,9.6
2024-03-24T09:45:19.955Z,9.6
2024-03-24T09:46:20.458Z,9.6
2024-03-24T09:47:20.943Z,9.6
2024-03-24T09:48:21.470Z,9.6
2024-03-24T09:49:21.477Z,9.6
2024-03-24T09:50:21.494Z,9.6
2024-03-24T09:51:21.979Z,9.6
2024-03-24T09:52:22.564Z,9.3
2024-03-24T09:53:22.475Z,9.3
2024-03-24T09:54:22.986Z,9.3
2024-03-24T09:55:22.994Z,9.3
2024-03-24T09:56:22.995Z,9.3
2024-03-24T09:57:23.007Z,9.6
2024-03-24T09:58:23.011Z,9.6
2024-03-24T09:59:23.470Z,9.6
2024-03-24T10:00:23.964Z,9.6
2024-03-24T10:01:24.498Z,9.6
2024-03-24T10:02:24.478Z,9.6
2024-03-24T10:03:26.264Z,9.6
2024-03-24T10:04:24.979Z,9.6
2024-03-24T10:05:25.467Z,9.6
2024-03-24T10:06:25.485Z,9.6
2024-03-24T10:07:25.990Z,9.6
2024-03-24T10:08:26.469Z,9.6
2024-03-24T10:09:26.965Z,9.6
2024-03-24T10:10:27.501Z,9.6
2024-03-24T10:11:27.950Z,9.7
2024-03-24T10:12:28.512Z,10
2024-03-24T10:13:28.522Z,10
2024-03-24T10:14:28.992Z,10
2024-03-24T10:15:29.476Z,10
2024-03-24T10:16:29.959Z,10
2024-03-24T10:17:30.195Z,10
2024-03-24T10:18:30.196Z,10
2024-03-24T10:19:30.195Z,10
2024-03-24T10:20:30.191Z,10
2024-03-24T10:21:30.693Z,10
2024-03-24T10:22:30.707Z,10
2024-03-24T10:23:30.790Z,10
2024-03-24T10:24:30.765Z,10
2024-03-24T10:25:30.844Z,10
2024-03-24T10:26:30.794Z,10
2024-03-24T10:27:31.284Z,10
2024-03-24T10:28:31.748Z,10.1
2024-03-24T10:29:32.251Z,10.5
2024-03-24T10:30:32.746Z,10.5
2024-03-24T10:31:33.232Z,10.5
2024-03-24T10:32:33.765Z,10.5
2024-03-24T10:33:34.223Z,10.5
2024-03-24T10:34:34.731Z,10.5
2024-03-24T10:35:35.279Z,10.5
2024-03-24T10:36:35.233Z,10.5
2024-03-24T10:37:35.722Z,10.5
2024-03-24T10:38:36.220Z,10.5
2024-03-24T10:39:36.251Z,10.5
2024-03-24T10:40:36.254Z,10.5
2024-03-24T10:41:36.279Z,10.5
2024-03-24T10:42:36.285Z,10.5
2024-03-24T10:43:36.738Z,10.5
2024-03-24T10:44:37.235Z,10.5
2024-03-24T10:45:37.744Z,10.5
2024-03-24T10:46:37.748Z,10.5
2024-03-24T10:47:38.237Z,10.6
2024-03-24T10:48:38.766Z,10.9
2024-03-24T10:49:38.747Z,10.9
2024-03-24T10:50:38.753Z,10.9
2024-03-24T10:51:39.300Z,10.9
2024-03-24T10:52:39.330Z,10.9
2024-03-24T10:53:39.834Z,10.9
2024-03-24T10:54:39.825Z,10.9
2024-03-24T10:55:40.321Z,10.9
2024-03-24T10:56:40.821Z,10.5
2024-03-24T10:57:41.391Z,10.5
2024-03-24T10:58:41.613Z,10.5
2024-03-24T10:59:41.619Z,10.5
2024-03-24T11:00:41.620Z,10.5
2024-03-24T11:01:41.686Z,10.5
2024-03-24T11:02:41.676Z,10.5
2024-03-24T11:03:42.156Z,10.5
2024-03-24T11:04:42.649Z,10.5
2024-03-24T11:05:42.656Z,10.5
2024-03-24T11:06:42.676Z,10.5
2024-03-24T11:07:42.671Z,10.5
2024-03-24T11:08:42.699Z,10.5
2024-03-24T11:09:42.721Z,10.5
2024-03-24T11:10:43.208Z,10.5
2024-03-24T11:11:43.733Z,10.5
2024-03-24T11:12:44.240Z,10.5
2024-03-24T11:13:44.717Z,10.5
2024-03-24T11:14:45.247Z,10.9
2024-03-24T11:15:45.221Z,10.9
2024-03-24T11:16:45.249Z,10.9
2024-03-24T11:17:45.247Z,10.9
2024-03-24T11:18:45.239Z,10.9
2024-03-24T11:19:45.736Z,10.9
2024-03-24T11:20:45.790Z,10.9
2024-03-24T11:21:45.807Z,10.9
2024-03-24T11:22:45.793Z,11.3
2024-03-24T11:23:46.283Z,11.3
2024-03-24T11:24:46.296Z,11.3
2024-03-24T11:25:46.302Z,11.3
2024-03-24T11:26:46.308Z,11.3
2024-03-24T11:27:46.802Z,11.3
2024-03-24T11:28:47.326Z,11.3
2024-03-24T11:29:47.913Z,11.3
2024-03-24T11:30:47.887Z,11.3
2024-03-24T11:31:47.901Z,11.3
2024-03-24T11:32:47.906Z,11.3
2024-03-24T11:33:47.958Z,11.3
2024-03-24T11:34:48.001Z,11.3
2024-03-24T11:35:48.007Z,11.3
2024-03-24T11:36:48.034Z,11.3
2024-03-24T11:37:48.060Z,11.3
2024-03-24T11:38:48.051Z,11.7
2024-03-24T11:39:48.640Z,11.8
2024-03-24T11:40:49.970Z,11.8
2024-03-24T11:41:49.251Z,11.8
2024-03-24T11:42:49.221Z,11.8
2024-03-24T11:43:49.843Z,11.8
2024-03-24T11:44:49.738Z,11.8
2024-03-24T11:45:50.206Z,11.8
2024-03-24T11:46:50.712Z,11.8
2024-03-24T11:47:50.699Z,11.8
2024-03-24T11:48:51.201Z,11.8
2024-03-24T11:49:51.685Z,12.2
2024-03-24T11:50:52.179Z,12.2
2024-03-24T11:51:52.188Z,12.2
2024-03-24T11:52:52.884Z,12.2
2024-03-24T11:53:52.682Z,12.2
2024-03-24T11:54:52.706Z,12.2
2024-03-24T11:55:52.706Z,12.2
2024-03-24T11:56:53.214Z,12.2
2024-03-24T11:57:53.199Z,12.2
2024-03-24T11:58:53.723Z,12.2
2024-03-24T11:59:53.704Z,12.2
2024-03-24T12:00:54.180Z,11.8
2024-03-24T12:01:54.710Z,11.8
2024-03-24T12:02:54.685Z,11.8
2024-03-24T12:03:55.174Z,11.8
2024-03-24T12:04:55.661Z,11.8
2024-03-24T12:05:56.170Z,11.8
2024-03-24T12:06:56.655Z,11.8
2024-03-24T12:07:57.207Z,11.8
2024-03-24T12:08:57.210Z,11.8
2024-03-24T12:09:57.236Z,11.8
2024-03-24T12:10:57.723Z,11.8
2024-03-24T12:11:58.215Z,11.3
2024-03-24T12:12:58.722Z,11.3
2024-03-24T12:13:58.821Z,11.3
2024-03-24T12:14:58.813Z,11.3
2024-03-24T12:15:58.874Z,11.3
2024-03-24T12:16:58.899Z,11.3
2024-03-24T12:17:58.914Z,11.3
2024-03-24T12:18:58.966Z,11.3
2024-03-24T12:19:59.179Z,11.3
2024-03-24T12:20:59.241Z,11.3
2024-03-24T12:21:59.233Z,11.3
2024-03-24T12:22:59.722Z,11.3
2024-03-24T12:23:59.723Z,11.3
2024-03-24T12:25:00.286Z,11.3
2024-03-24T12:26:00.240Z,11.3
2024-03-24T12:27:00.730Z,11.3
2024-03-24T12:28:00.738Z,11.3
2024-03-24T12:29:00.732Z,11.3
2024-03-24T12:30:01.354Z,11.3
2024-03-24T12:31:01.331Z,11.3
2024-03-24T12:32:01.294Z,11.3
2024-03-24T12:33:01.796Z,11.3
2024-03-24T12:34:01.794Z,11.3
2024-03-24T12:35:02.302Z,11.3
2024-03-24T12:36:02.291Z,11.3
2024-03-24T12:37:02.818Z,11.3
2024-03-24T12:38:02.871Z,11.1
2024-03-24T12:39:02.850Z,10.9
2024-03-24T12:40:02.830Z,10.9
2024-03-24T12:41:03.319Z,10.9
2024-03-24T12:42:03.803Z,10.9
2024-03-24T12:43:04.292Z,10.9
2024-03-24T12:44:04.327Z,10.9
2024-03-24T12:45:04.365Z,10.9
2024-03-24T12:46:04.811Z,10.9
2024-03-24T12:47:05.294Z,11
2024-03-24T12:48:05.796Z,11.3
2024-03-24T12:49:05.827Z,11.3
2024-03-24T12:50:11.508Z,11.3
2024-03-24T12:51:06.342Z,11.3
2024-03-24T12:52:06.339Z,11.3
2024-03-24T12:53:06.360Z,11.3
2024-03-24T12:54:06.363Z,11.3
2024-03-24T12:55:06.384Z,11.3
2024-03-24T12:56:06.377Z,11.3
2024-03-24T12:57:06.372Z,10.9
2024-03-24T12:58:06.427Z,10.9
2024-03-24T12:59:06.440Z,10.9
2024-03-24T13:00:06.487Z,10.9
2024-03-24T13:01:06.461Z,10.9
2024-03-24T13:02:06.476Z,10.9
2024-03-24T13:03:06.481Z,10.9
2024-03-24T13:04:06.876Z,10.9
2024-03-24T13:05:06.986Z,10.9
2024-03-24T13:06:06.968Z,10.9
2024-03-24T13:07:07.470Z,10.9
2024-03-24T13:08:07.977Z,10.9
2024-03-24T13:09:08.478Z,10.9
2024-03-24T13:10:08.965Z,10.9
2024-03-24T13:11:12.022Z,10.9
2024-03-24T13:12:10.090Z,10.9
2024-03-24T13:13:10.064Z,10.9
2024-03-24T13:14:10.547Z,10.9
2024-03-24T13:15:11.052Z,10.9
2024-03-24T13:16:11.542Z,10.9
2024-03-24T13:17:11.554Z,10.9
2024-03-24T13:18:11.541Z,10.9
2024-03-24T13:19:11.558Z,10.9
2024-03-24T13:20:12.063Z,10.9
2024-03-24T13:21:12.564Z,10.9
2024-03-24T13:22:12.556Z,10.9
2024-03-24T13:23:12.585Z,10.9
2024-03-24T13:24:12.596Z,10.9
2024-03-24T13:25:12.618Z,10.9
2024-03-24T13:26:13.084Z,10.9
2024-03-24T13:27:13.089Z,10.9
2024-03-24T13:28:13.098Z,10.9
2024-03-24T13:29:13.618Z,10.9
2024-03-24T13:30:13.587Z,10.9
2024-03-24T13:31:14.217Z,10.9
2024-03-24T13:32:14.197Z,10.9
2024-03-24T13:33:14.687Z,10.9
2024-03-24T13:34:15.191Z,10.9
2024-03-24T13:35:15.199Z,10.9
2024-03-24T13:36:15.197Z,10.9
2024-03-24T13:37:15.208Z,10.9
2024-03-24T13:38:15.196Z,10.9
2024-03-24T13:39:15.203Z,10.9
2024-03-24T13:40:15.716Z,10.9
2024-03-24T13:41:15.720Z,10.9
2024-03-24T13:42:16.233Z,10.9
2024-03-24T13:43:16.241Z,10.9
2024-03-24T13:44:16.742Z,10.9
2024-03-24T13:45:16.775Z,10.9
2024-03-24T13:46:17.304Z,10.9
2024-03-24T13:47:17.803Z,10.9
2024-03-24T13:48:17.767Z,10.9
2024-03-24T13:49:18.260Z,10.9